Terminal Aerodrome Forecast
Issued by NWS

Home | Current Version | Previous Version | Text Only | Print | Product List | Glossary On
Versions: 1 2 3 4 5 6 7 8 9 10 11 12 13 14 15 16 17 18
000
FTUS43 KIND 071800 AAA
TAFHUF
TAF AMD
KHUF 071829Z 0718/0818 34011KT 4SM -SHRA VCTS OVC015CB
      TEMPO 0718/0719 1SM +TSRA BR
     FM071900 34011KT 4SM BR VCSH OVC008
     FM080900 01007KT 3SM BR OVC005
     FM081400 08006KT P6SM OVC012=

USA.gov is the U.S. government's official web portal to all federal, state and local government web resources and services.